createdAt,value
2018-08-11T08:09:41.167Z,111965.59
2018-08-11T12:13:03.507Z,100865.59
2018-08-11T12:16:07.770Z,101486.64
2018-08-11T12:18:35.972Z,101495.33
2018-08-11T12:21:04.181Z,101491.11
2018-08-11T12:23:32.379Z,101491.50
2018-08-11T12:26:00.980Z,101491.95
2018-08-11T12:28:29.232Z,101491.95
2018-08-11T12:30:57.544Z,101483.60
2018-08-11T12:33:25.747Z,101487.23
2018-08-11T12:35:53.943Z,101487.52
2018-08-11T12:38:22.091Z,101468.75
2018-08-11T12:40:50.296Z,101475.53
2018-08-11T12:43:18.474Z,101475.89
2018-08-11T12:45:46.682Z,101483.27
2018-08-11T12:48:14.890Z,101475.58
2018-08-11T12:50:43.194Z,101476.91
2018-08-11T12:53:11.981Z,101473.92
2018-08-11T12:55:40.743Z,101470.73
2018-08-11T12:58:09.127Z,101474.88
2018-08-11T13:00:37.349Z,101464.02
2018-08-11T13:03:05.928Z,101464.50
2018-08-11T13:05:34.221Z,101465.76
2018-08-11T13:08:02.388Z,101470.66
2018-08-11T13:10:31.003Z,101461.89
2018-08-11T13:12:59.259Z,101455.71
2018-08-11T13:15:28.463Z,101459.41
2018-08-11T13:18:03.005Z,101459.60
2018-08-11T13:20:31.251Z,101460.27
2018-08-11T13:22:59.518Z,101449.08
2018-08-11T13:25:27.722Z,101441.20
2018-08-11T13:27:55.921Z,101443.47
2018-08-11T13:30:24.487Z,101448.19
2018-08-11T13:32:52.681Z,101456.16
2018-08-11T13:35:20.987Z,101463.39
2018-08-11T13:37:50.004Z,101463.02
2018-08-11T13:40:18.208Z,101459.98
2018-08-11T13:42:46.434Z,101457.91
2018-08-11T13:45:18.318Z,101460.98
2018-08-11T13:47:46.922Z,101447.55
2018-08-11T13:50:15.066Z,101458.87
2018-08-11T13:52:43.521Z,101449.06
2018-08-11T13:55:11.803Z,101447.59
2018-08-11T13:57:40.183Z,101450.16
2018-08-11T14:00:09.111Z,101451.78
2018-08-11T14:02:37.278Z,101450.61
2018-08-11T14:05:05.527Z,101459.86
2018-08-11T14:07:33.705Z,101451.88
2018-08-11T14:10:01.954Z,101448.14
2018-08-11T14:12:30.099Z,101453.55
2018-08-11T14:14:58.419Z,101441.70
2018-08-11T14:17:26.539Z,101442.84
2018-08-11T14:19:55.258Z,101441.26
2018-08-11T14:22:23.728Z,101433.52
2018-08-11T14:24:52.392Z,101434.28
2018-08-11T14:27:20.800Z,101432.41
2018-08-11T14:29:49.112Z,101431.84
2018-08-11T14:32:17.538Z,101437.72
2018-08-11T14:34:45.752Z,101435.30
2018-08-11T14:37:14.102Z,101446.17
2018-08-11T14:39:42.288Z,101430.33
2018-08-11T14:42:10.588Z,101426.96
2018-08-11T14:44:38.866Z,101434.20
2018-08-11T14:47:07.071Z,101442.44
2018-08-11T14:49:35.285Z,101438.85
2018-08-11T14:52:03.499Z,111965.59
2018-08-11T15:43:39.612Z,111965.59
2018-08-11T15:46:07.892Z,111965.59
2018-08-11T16:18:10.518Z,111965.59
